Time;durP1;ratioP1;P1;durP2;ratioP2;P2;SDS_P1;SDS_P2;PMS_P1;PMS_P2;Temp;Humidity;BMP_temperature;BMP_pressure;BME280_temperature;BME280_humidity;BME280_pressure;Samples;Min_cycle;Max_cycle;Signal;HPM_P1;HPM_P2
2021/06/12 00:01:02;;;;;;;16.67;13.20;;;17.50;99.90;;;;;;4178428;28;20040;-77
2021/06/12 00:03:04;;;;;;;20.27;14.48;;;17.50;99.90;;;;;;4178607;28;20111;-77
2021/06/12 00:05:07;;;;;;;19.38;13.85;;;17.40;99.90;;;;;;4194191;28;20028;-77
2021/06/12 00:07:08;;;;;;;19.17;15.30;;;17.40;99.90;;;;;;4179166;28;20032;-76
2021/06/12 00:09:08;;;;;;;17.20;14.02;;;17.40;99.90;;;;;;4180521;28;20033;-77
2021/06/12 00:11:09;;;;;;;19.15;15.77;;;17.30;99.90;;;;;;4213763;28;20093;-77
2021/06/12 00:13:10;;;;;;;16.85;14.50;;;17.30;99.90;;;;;;4181729;28;20446;-77
2021/06/12 00:15:12;;;;;;;18.88;15.23;;;17.20;99.90;;;;;;4196784;28;20037;-76
2021/06/12 00:17:13;;;;;;;18.90;15.30;;;17.20;99.90;;;;;;4196960;28;20044;-76
2021/06/12 00:19:13;;;;;;;21.98;16.05;;;17.20;99.90;;;;;;4181588;28;20503;-76
2021/06/12 00:21:14;;;;;;;19.52;15.73;;;17.10;99.90;;;;;;4180225;28;20075;-76
2021/06/12 00:23:16;;;;;;;28.13;15.02;;;17.00;99.90;;;;;;4180386;28;20484;-76
2021/06/12 00:25:22;;;;;;;20.87;15.23;;;16.90;99.90;;;;;;4181624;28;20025;-76
2021/06/12 00:27:23;;;;;;;22.10;16.10;;;16.90;99.90;;;;;;4180178;28;20270;-75
2021/06/12 00:29:24;;;;;;;20.38;15.60;;;16.90;99.90;;;;;;4181564;28;20040;-76
2021/06/12 00:31:25;;;;;;;24.23;17.55;;;16.90;99.90;;;;;;4194980;28;20086;-76
2021/06/12 00:33:26;;;;;;;20.17;15.40;;;16.90;99.90;;;;;;4180236;28;20135;-75
2021/06/12 00:35:27;;;;;;;23.88;15.68;;;16.80;99.90;;;;;;4181663;28;20376;-77
2021/06/12 00:37:28;;;;;;;18.65;14.45;;;16.80;99.90;;;;;;4181806;28;20037;-77
2021/06/12 00:39:28;;;;;;;19.20;15.38;;;16.80;99.90;;;;;;4181255;28;20037;-77
2021/06/12 00:41:30;;;;;;;24.58;17.83;;;16.80;99.90;;;;;;4179328;28;20052;-77
2021/06/12 00:43:30;;;;;;;22.90;16.00;;;16.80;99.90;;;;;;4180943;28;20117;-75
2021/06/12 00:45:32;;;;;;;21.98;16.23;;;16.70;99.90;;;;;;4180863;28;20040;-77
2021/06/12 00:47:32;;;;;;;24.35;15.40;;;16.70;99.90;;;;;;4181413;28;20037;-77
2021/06/12 00:49:33;;;;;;;24.52;16.63;;;16.60;99.90;;;;;;4181342;28;20037;-77
2021/06/12 00:51:34;;;;;;;21.63;17.25;;;16.60;99.90;;;;;;4196047;28;20110;-77
2021/06/12 00:53:40;;;;;;;24.85;16.95;;;16.60;99.90;;;;;;4181132;28;20044;-78
2021/06/12 00:55:40;;;;;;;23.02;15.90;;;16.70;99.90;;;;;;4181259;28;20032;-77
2021/06/12 00:57:41;;;;;;;21.25;14.77;;;16.70;99.90;;;;;;4180916;28;20048;-78
2021/06/12 00:59:42;;;;;;;26.02;16.02;;;16.70;99.90;;;;;;4181241;28;20451;-76
2021/06/12 01:01:43;;;;;;;22.23;15.35;;;16.70;99.90;;;;;;4196017;28;20043;-76
2021/06/12 01:03:45;;;;;;;22.27;15.18;;;16.70;99.90;;;;;;4179704;28;20045;-75
2021/06/12 01:05:46;;;;;;;19.67;13.95;;;16.70;99.90;;;;;;4180621;28;20037;-76
2021/06/12 01:07:46;;;;;;;21.65;15.65;;;16.80;99.90;;;;;;4180869;28;22403;-77
2021/06/12 01:09:47;;;;;;;22.13;14.15;;;16.80;99.90;;;;;;4180720;28;20883;-76
2021/06/12 01:12:03;;;;;;;24.30;14.38;;;16.80;99.90;;;;;;4180971;28;20076;-76
2021/06/12 01:14:18;;;;;;;25.40;15.27;;;16.90;99.90;;;;;;4180612;28;20033;-76
2021/06/12 01:16:39;;;;;;;17.27;13.00;;;17.00;99.90;;;;;;4180910;28;20457;-76
2021/06/12 01:18:43;;;;;;;26.05;14.45;;;17.00;99.90;;;;;;4180397;28;20091;-75
2021/06/12 01:21:07;;;;;;;27.92;13.30;;;17.10;99.90;;;;;;4180734;28;20087;-76
2021/06/12 01:23:11;;;;;;;23.55;12.93;;;17.00;99.90;;;;;;4172834;28;20020;-77
2021/06/12 01:25:27;;;;;;;22.67;12.63;;;17.10;99.90;;;;;;4195987;28;20460;-76
2021/06/12 01:27:48;;;;;;;24.42;13.13;;;17.00;99.90;;;;;;4195890;28;20395;-77
2021/06/12 01:30:24;;;;;;;18.00;11.30;;;17.00;99.90;;;;;;4164494;28;20032;-76
2021/06/12 01:32:28;;;;;;;21.20;12.38;;;17.00;99.90;;;;;;4167580;28;20076;-75
2021/06/12 01:34:30;;;;;;;21.13;13.52;;;17.00;99.90;;;;;;4180692;28;20033;-76
2021/06/12 01:36:31;;;;;;;18.30;12.55;;;17.00;99.90;;;;;;4180514;28;20040;-76
2021/06/12 01:38:35;;;;;;;21.45;12.43;;;17.10;99.90;;;;;;4179611;28;20552;-77
2021/06/12 01:40:40;;;;;;;19.45;11.30;;;17.10;99.90;;;;;;4180174;28;20060;-76
2021/06/12 01:42:45;;;;;;;18.40;11.90;;;17.00;99.90;;;;;;4195652;28;20036;-76
2021/06/12 01:44:46;;;;;;;15.18;11.23;;;17.10;99.90;;;;;;4186253;28;20033;-78
2021/06/12 01:46:48;;;;;;;19.08;12.55;;;17.10;99.90;;;;;;4177545;28;20145;-76
2021/06/12 01:48:49;;;;;;;20.25;13.40;;;17.10;99.90;;;;;;4179088;28;20426;-76
2021/06/12 01:50:50;;;;;;;21.38;12.75;;;17.10;99.90;;;;;;4178055;28;20095;-76
2021/06/12 01:52:53;;;;;;;19.30;12.63;;;17.10;99.90;;;;;;4180054;28;20044;-76
2021/06/12 01:54:56;;;;;;;15.65;10.45;;;17.00;99.90;;;;;;4180220;28;20036;-76
2021/06/12 01:56:59;;;;;;;25.17;12.18;;;17.10;99.90;;;;;;4180574;28;20037;-76
2021/06/12 01:59:00;;;;;;;20.13;12.65;;;17.00;99.90;;;;;;4195142;28;20435;-76
2021/06/12 02:01:02;;;;;;;19.13;11.40;;;17.00;99.90;;;;;;4179632;28;20029;-77
2021/06/12 02:03:03;;;;;;;18.88;11.82;;;17.00;99.90;;;;;;4180380;28;20025;-76
2021/06/12 02:05:05;;;;;;;20.00;11.98;;;17.00;99.90;;;;;;4179868;28;20044;-76
2021/06/12 02:07:07;;;;;;;22.58;11.73;;;17.00;99.90;;;;;;4177314;28;20059;-77
2021/06/12 02:09:09;;;;;;;19.33;11.85;;;17.10;99.90;;;;;;4180373;28;20025;-76
2021/06/12 02:11:13;;;;;;;20.35;11.38;;;17.20;99.90;;;;;;4165203;28;20029;-77
2021/06/12 02:13:16;;;;;;;23.30;12.60;;;17.10;99.90;;;;;;4177466;28;20029;-75
2021/06/12 02:15:18;;;;;;;22.15;14.07;;;17.10;99.90;;;;;;4178885;28;20590;-76
2021/06/12 02:17:19;;;;;;;19.50;12.10;;;17.10;99.90;;;;;;4179154;28;20025;-76
2021/06/12 02:19:22;;;;;;;21.90;12.88;;;17.10;99.90;;;;;;4177638;28;20037;-76
2021/06/12 02:21:25;;;;;;;18.33;12.18;;;17.10;99.90;;;;;;4194127;28;20060;-76
2021/06/12 02:23:29;;;;;;;17.42;11.43;;;17.10;99.90;;;;;;4178091;28;20710;-76
2021/06/12 02:25:29;;;;;;;22.20;14.18;;;17.00;99.90;;;;;;4178797;28;20075;-76
2021/06/12 02:27:31;;;;;;;18.75;12.02;;;17.10;99.90;;;;;;4178461;28;20085;-76
2021/06/12 02:29:33;;;;;;;24.67;12.55;;;17.10;99.90;;;;;;4179091;28;20033;-77
2021/06/12 02:31:41;;;;;;;25.20;12.07;;;17.10;99.90;;;;;;4179691;28;20503;-76
2021/06/12 02:33:45;;;;;;;24.17;12.85;;;17.10;99.90;;;;;;4178332;28;20453;-77
2021/06/12 02:35:46;;;;;;;20.70;12.93;;;17.10;99.90;;;;;;4179747;28;20116;-77
2021/06/12 02:37:47;;;;;;;20.15;12.38;;;17.00;99.90;;;;;;4179561;28;20098;-76
2021/06/12 02:39:48;;;;;;;18.13;11.27;;;17.10;99.90;;;;;;4179553;28;20118;-77
2021/06/12 02:41:48;;;;;;;22.55;11.90;;;17.10;99.90;;;;;;4179765;28;20029;-77
2021/06/12 02:43:49;;;;;;;25.50;12.57;;;17.10;99.90;;;;;;4181587;28;20044;-76
2021/06/12 02:45:50;;;;;;;19.77;11.98;;;17.10;99.90;;;;;;4179385;28;20037;-77
2021/06/12 02:47:54;;;;;;;27.33;13.10;;;17.10;99.90;;;;;;4179399;28;20094;-77
2021/06/12 02:49:57;;;;;;;17.95;11.85;;;17.00;99.90;;;;;;4179313;28;20120;-76
2021/06/12 02:52:03;;;;;;;;;;;17.00;99.90;;;;;;4178243;28;20036;-76
2021/06/12 02:54:04;;;;;;;22.58;13.15;;;17.00;99.90;;;;;;4177403;28;20104;-76
2021/06/12 02:56:06;;;;;;;21.63;12.27;;;17.00;99.90;;;;;;4178032;28;20036;-77
2021/06/12 02:58:09;;;;;;;19.65;12.88;;;17.00;99.90;;;;;;4179084;28;20547;-76
2021/06/12 03:00:11;;;;;;;25.35;12.88;;;17.10;99.90;;;;;;4179441;28;20057;-76
2021/06/12 03:02:15;;;;;;;21.40;12.88;;;17.00;99.90;;;;;;4179628;28;20021;-77
2021/06/12 03:04:17;;;;;;;21.52;12.48;;;17.10;99.90;;;;;;4179520;28;20537;-76
2021/06/12 03:06:19;;;;;;;24.15;14.40;;;17.10;99.90;;;;;;4177464;28;20031;-77
2021/06/12 03:08:22;;;;;;;25.02;13.45;;;17.10;99.90;;;;;;4179491;28;20040;-77
2021/06/12 03:10:25;;;;;;;20.90;11.82;;;17.10;99.90;;;;;;4179437;28;20536;-76
2021/06/12 03:12:27;;;;;;;21.85;13.38;;;17.10;99.90;;;;;;4177561;28;20363;-76
2021/06/12 03:14:31;;;;;;;22.47;11.83;;;17.20;99.90;;;;;;4179026;28;20385;-77
2021/06/12 03:16:32;;;;;;;24.50;12.63;;;17.10;99.90;;;;;;4179286;28;20423;-77
2021/06/12 03:18:34;;;;;;;20.67;13.35;;;17.20;99.90;;;;;;4179169;28;20037;-76
2021/06/12 03:20:36;;;;;;;23.45;13.95;;;17.20;99.90;;;;;;4179046;28;20028;-78
2021/06/12 03:22:38;;;;;;;23.35;12.88;;;17.20;99.90;;;;;;4179297;28;20068;-78
2021/06/12 03:24:40;;;;;;;18.42;13.18;;;17.20;99.90;;;;;;4179145;28;20112;-77
2021/06/12 03:26:41;;;;;;;20.83;13.82;;;17.20;99.90;;;;;;4179323;28;20108;-77
2021/06/12 03:28:43;;;;;;;21.67;12.40;;;17.20;99.90;;;;;;4177789;28;20115;-78
2021/06/12 03:30:44;;;;;;;20.55;12.68;;;17.20;99.90;;;;;;4179155;28;20037;-77
2021/06/12 03:32:46;;;;;;;21.13;13.52;;;17.20;99.90;;;;;;4179172;28;20041;-78
2021/06/12 03:34:47;;;;;;;22.20;13.50;;;17.20;99.90;;;;;;4179397;28;20066;-78
2021/06/12 03:36:49;;;;;;;21.45;13.27;;;17.20;99.90;;;;;;4176833;28;20029;-78
2021/06/12 03:38:51;;;;;;;22.58;13.50;;;17.20;99.90;;;;;;4179163;28;20094;-77
2021/06/12 03:40:52;;;;;;;25.25;14.15;;;17.20;99.90;;;;;;4177942;28;20534;-78
2021/06/12 03:42:54;;;;;;;21.25;14.70;;;17.20;99.90;;;;;;4180272;28;20074;-78
2021/06/12 03:44:55;;;;;;;18.80;12.40;;;17.20;99.90;;;;;;4182562;28;20464;-77
2021/06/12 03:46:58;;;;;;;20.30;13.30;;;17.20;99.90;;;;;;4182634;28;20040;-77
2021/06/12 03:49:00;;;;;;;20.77;12.88;;;17.30;99.90;;;;;;4182442;28;20084;-78
2021/06/12 03:51:02;;;;;;;26.42;13.45;;;17.40;99.90;;;;;;4178470;28;20419;-77
2021/06/12 03:53:05;;;;;;;19.17;11.82;;;17.40;99.90;;;;;;4178943;28;20052;-77
2021/06/12 03:55:06;;;;;;;20.20;13.05;;;17.30;99.90;;;;;;4179213;28;20553;-77
2021/06/12 03:57:07;;;;;;;19.92;11.80;;;17.40;99.90;;;;;;4181486;28;20048;-77
2021/06/12 03:59:08;;;;;;;26.55;13.60;;;17.50;99.90;;;;;;4181616;28;20100;-77
2021/06/12 04:01:15;;;;;;;22.45;14.88;;;17.40;99.90;;;;;;4181921;28;20044;-78
2021/06/12 04:03:15;;;;;;;23.98;13.27;;;17.40;99.90;;;;;;4171000;28;20034;-77
2021/06/12 04:05:18;;;;;;;19.55;13.40;;;17.40;99.90;;;;;;4181878;28;20036;-77
2021/06/12 04:07:19;;;;;;;23.23;14.05;;;17.40;99.90;;;;;;4180386;28;20028;-77
2021/06/12 04:09:20;;;;;;;21.20;13.82;;;17.40;99.90;;;;;;4210509;28;20535;-77
2021/06/12 04:11:20;;;;;;;21.83;13.50;;;17.40;99.90;;;;;;4175951;28;20041;-77
2021/06/12 04:13:21;;;;;;;25.60;14.75;;;17.40;99.90;;;;;;4179535;28;20047;-77
2021/06/12 04:15:22;;;;;;;21.08;14.65;;;17.40;99.90;;;;;;4180696;28;20036;-77
2021/06/12 04:17:23;;;;;;;21.80;14.57;;;17.40;99.90;;;;;;4181385;28;20118;-77
2021/06/12 04:19:23;;;;;;;34.47;15.88;;;17.50;99.90;;;;;;4181893;28;20029;-77
2021/06/12 04:21:24;;;;;;;20.30;13.73;;;17.40;99.90;;;;;;4180425;28;20029;-77
2021/06/12 04:23:25;;;;;;;22.13;15.05;;;17.40;99.90;;;;;;4181507;28;20082;-77
2021/06/12 04:25:26;;;;;;;20.05;14.23;;;17.40;99.90;;;;;;4181890;28;20036;-77
2021/06/12 04:27:26;;;;;;;21.77;14.63;;;17.50;99.90;;;;;;4181739;28;20104;-77
2021/06/12 04:29:28;;;;;;;22.20;14.55;;;17.40;99.90;;;;;;4180547;28;20033;-77
2021/06/12 04:31:28;;;;;;;22.77;14.57;;;17.50;99.90;;;;;;4180322;28;20496;-77
2021/06/12 04:33:29;;;;;;;20.75;14.50;;;17.50;99.90;;;;;;4180318;28;20037;-77
2021/06/12 04:35:30;;;;;;;17.08;13.52;;;17.50;99.90;;;;;;4181536;28;20052;-77
2021/06/12 04:37:31;;;;;;;20.30;14.40;;;17.50;99.90;;;;;;4180222;28;20095;-77
2021/06/12 04:39:31;;;;;;;23.25;13.85;;;17.50;99.90;;;;;;4179790;28;20041;-77
2021/06/12 04:41:32;;;;;;;21.23;13.88;;;17.50;99.90;;;;;;4180305;28;20468;-78
2021/06/12 04:43:33;;;;;;;25.52;14.15;;;17.60;99.90;;;;;;4180645;28;20090;-78
2021/06/12 04:45:35;;;;;;;20.10;13.70;;;17.60;99.90;;;;;;4174306;28;20033;-77
2021/06/12 04:47:36;;;;;;;21.05;14.02;;;17.70;99.90;;;;;;4179925;28;20025;-77
2021/06/12 04:49:36;;;;;;;22.00;14.35;;;17.70;99.90;;;;;;4181157;28;20384;-77
2021/06/12 04:51:37;;;;;;;21.27;13.23;;;17.70;99.90;;;;;;4179956;28;20111;-77
2021/06/12 04:53:38;;;;;;;19.88;13.38;;;17.60;99.90;;;;;;4179230;28;20128;-77
2021/06/12 04:55:39;;;;;;;18.92;13.32;;;17.60;99.90;;;;;;4179187;28;20075;-77
2021/06/12 04:57:41;;;;;;;19.52;14.10;;;17.60;99.90;;;;;;4179760;28;20086;-77
2021/06/12 04:59:41;;;;;;;17.42;12.88;;;17.70;99.90;;;;;;4181474;28;20440;-77
2021/06/12 05:01:42;;;;;;;21.42;13.27;;;17.70;99.90;;;;;;4179815;28;20029;-77
2021/06/12 05:03:43;;;;;;;18.58;12.05;;;17.70;99.90;;;;;;4180992;28;20033;-78
2021/06/12 05:05:43;;;;;;;20.65;12.43;;;17.70;99.90;;;;;;4181294;28;20051;-77
2021/06/12 05:07:44;;;;;;;17.42;12.07;;;17.70;99.90;;;;;;4181698;28;20112;-77
2021/06/12 05:09:45;;;;;;;17.85;11.90;;;17.90;99.90;;;;;;4179821;28;20438;-77
2021/06/12 05:11:45;;;;;;;17.98;11.35;;;17.80;99.90;;;;;;4182914;28;20037;-77
2021/06/12 05:13:46;;;;;;;20.77;12.75;;;17.80;99.90;;;;;;4181043;28;20083;-77
2021/06/12 05:15:47;;;;;;;20.75;12.25;;;17.90;99.90;;;;;;4180685;28;20033;-77
2021/06/12 05:17:48;;;;;;;20.73;12.23;;;17.90;99.90;;;;;;4181190;28;20056;-77
2021/06/12 05:19:50;;;;;;;18.60;12.32;;;18.00;99.90;;;;;;4181059;28;20029;-77
2021/06/12 05:21:51;;;;;;;17.27;12.18;;;18.00;99.90;;;;;;4179395;28;20044;-77
2021/06/12 05:23:53;;;;;;;21.15;11.85;;;18.10;99.90;;;;;;4180385;28;20090;-77
2021/06/12 05:25:54;;;;;;;20.85;10.45;;;18.20;99.90;;;;;;4179514;28;20541;-77
2021/06/12 05:27:55;;;;;;;15.88;10.20;;;18.20;99.90;;;;;;4179267;28;20021;-77
2021/06/12 05:29:56;;;;;;;26.30;11.85;;;18.20;99.90;;;;;;4179347;28;20090;-77
2021/06/12 05:31:58;;;;;;;19.38;11.70;;;18.20;99.90;;;;;;4179307;28;20435;-77
2021/06/12 05:34:00;;;;;;;16.25;10.90;;;18.30;99.90;;;;;;4179628;28;20052;-77
2021/06/12 05:36:01;;;;;;;16.00;11.80;;;18.30;99.90;;;;;;4179192;28;20062;-77
2021/06/12 05:38:01;;;;;;;17.02;11.95;;;18.30;99.90;;;;;;4178880;28;20029;-77
2021/06/12 05:40:05;;;;;;;17.33;10.55;;;18.40;99.90;;;;;;4180370;28;20100;-77
2021/06/12 05:42:06;;;;;;;15.23;9.57;;;18.60;99.90;;;;;;4179314;28;20025;-76
2021/06/12 05:44:08;;;;;;;18.17;10.00;;;18.60;99.90;;;;;;4179284;28;20029;-76
2021/06/12 05:46:09;;;;;;;15.23;9.90;;;18.60;99.90;;;;;;4180194;28;20018;-76
2021/06/12 05:48:10;;;;;;;14.18;9.38;;;18.70;99.90;;;;;;4180256;28;20033;-76
2021/06/12 05:50:11;;;;;;;14.02;10.00;;;18.70;99.90;;;;;;4179212;28;20028;-76
2021/06/12 05:52:11;;;;;;;14.73;8.50;;;18.80;99.90;;;;;;4180251;28;20029;-76
2021/06/12 05:54:12;;;;;;;14.05;9.63;;;18.80;99.90;;;;;;4179824;28;20033;-76
2021/06/12 05:56:12;;;;;;;15.82;9.50;;;18.90;99.90;;;;;;4180114;28;20379;-76
2021/06/12 05:58:13;;;;;;;12.75;9.00;;;19.00;99.90;;;;;;4178984;28;20028;-78
2021/06/12 06:00:15;;;;;;;12.65;8.85;;;19.00;99.90;;;;;;4180432;28;20507;-76
2021/06/12 06:02:15;;;;;;;14.45;9.30;;;19.00;99.90;;;;;;4180084;28;20032;-79
2021/06/12 06:04:16;;;;;;;16.27;9.20;;;18.90;99.90;;;;;;4179350;28;20041;-79
2021/06/12 06:06:17;;;;;;;21.48;9.90;;;18.80;99.90;;;;;;4179876;28;20520;-78
2021/06/12 06:08:17;;;;;;;12.85;9.13;;;18.80;99.90;;;;;;4180116;28;20029;-78
2021/06/12 06:10:18;;;;;;;15.30;9.85;;;18.80;99.90;;;;;;4178791;28;20021;-79
2021/06/12 06:12:19;;;;;;;10.20;8.75;;;18.70;99.90;;;;;;4179803;28;20032;-78
2021/06/12 06:14:19;;;;;;;18.48;9.35;;;18.70;99.90;;;;;;4169010;28;20035;-78
2021/06/12 06:16:20;;;;;;;11.63;8.52;;;18.70;99.90;;;;;;4174059;28;20017;-78
2021/06/12 06:18:21;;;;;;;11.85;8.38;;;18.70;99.90;;;;;;4179910;28;20528;-76
2021/06/12 06:20:22;;;;;;;12.10;8.57;;;18.80;99.90;;;;;;4180230;28;20029;-78
2021/06/12 06:22:23;;;;;;;13.23;7.90;;;19.00;99.90;;;;;;4178317;28;20025;-78
2021/06/12 06:24:23;;;;;;;9.60;7.03;;;18.90;99.90;;;;;;4178458;28;20040;-78
2021/06/12 06:26:24;;;;;;;11.07;8.80;;;18.90;99.90;;;;;;4179935;28;20037;-78
2021/06/12 06:28:25;;;;;;;14.48;8.32;;;19.00;99.90;;;;;;4179587;28;20033;-78
2021/06/12 06:30:27;;;;;;;13.73;8.95;;;19.20;99.90;;;;;;4179935;28;21222;-77
2021/06/12 06:32:28;;;;;;;10.48;7.50;;;19.30;99.90;;;;;;4176991;28;20452;-78
2021/06/12 06:34:29;;;;;;;12.05;7.78;;;19.40;99.90;;;;;;4179601;28;20033;-77
2021/06/12 06:36:30;;;;;;;11.23;7.78;;;19.50;99.90;;;;;;4178160;28;20072;-76
2021/06/12 06:38:31;;;;;;;14.13;7.53;;;19.50;99.90;;;;;;4179536;28;20068;-76
2021/06/12 06:40:32;;;;;;;11.63;7.20;;;19.60;99.90;;;;;;4177306;28;20056;-75
2021/06/12 06:42:33;;;;;;;13.52;6.97;;;19.70;99.90;;;;;;4179374;28;20029;-78
2021/06/12 06:44:36;;;;;;;13.73;7.82;;;19.70;99.90;;;;;;4160781;28;20049;-76
2021/06/12 06:46:37;;;;;;;9.75;6.88;;;19.80;99.90;;;;;;4178274;28;20025;-77
2021/06/12 06:48:37;;;;;;;8.73;6.00;;;19.90;99.90;;;;;;4181560;28;20132;-77
2021/06/12 06:50:39;;;;;;;9.95;6.13;;;20.20;99.90;;;;;;4179136;28;20037;-77
2021/06/12 06:52:41;;;;;;;13.85;4.65;;;20.50;99.90;;;;;;4179041;28;20087;-76
2021/06/12 06:54:42;;;;;;;8.68;5.45;;;20.70;99.90;;;;;;4179111;28;20029;-77
2021/06/12 06:56:43;;;;;;;10.05;5.85;;;20.70;99.90;;;;;;4184078;28;20036;-76
2021/06/12 06:58:44;;;;;;;8.85;5.97;;;20.70;99.90;;;;;;4179128;28;20123;-77
2021/06/12 07:00:44;;;;;;;9.65;5.57;;;20.90;99.90;;;;;;4179319;28;20540;-78
2021/06/12 07:02:45;;;;;;;9.60;6.38;;;21.00;99.90;;;;;;4177833;28;20133;-78
2021/06/12 07:04:46;;;;;;;7.63;5.00;;;21.00;99.90;;;;;;4176736;28;20045;-77
2021/06/12 07:06:47;;;;;;;6.78;5.28;;;21.20;99.90;;;;;;4177901;28;20036;-77
2021/06/12 07:08:47;;;;;;;6.95;4.57;;;21.50;99.90;;;;;;4177173;28;20029;-78
2021/06/12 07:10:49;;;;;;;8.55;5.10;;;21.70;99.90;;;;;;4168926;28;20097;-76
2021/06/12 07:12:50;;;;;;;8.35;4.88;;;22.00;99.90;;;;;;4175438;28;20124;-76
2021/06/12 07:14:51;;;;;;;8.25;4.45;;;21.90;99.90;;;;;;4179392;28;20422;-78
2021/06/12 07:16:52;;;;;;;9.05;3.92;;;22.00;99.90;;;;;;4197550;28;20044;-77
2021/06/12 07:18:54;;;;;;;8.18;4.82;;;21.90;99.90;;;;;;4179168;28;20029;-77
2021/06/12 07:20:55;;;;;;;7.65;4.47;;;21.70;99.90;;;;;;4179511;28;20720;-78
2021/06/12 07:22:56;;;;;;;8.77;4.65;;;21.50;99.90;;;;;;4179190;28;20380;-78
2021/06/12 07:24:57;;;;;;;9.70;4.90;;;21.40;99.90;;;;;;4179573;28;20033;-78
2021/06/12 07:26:58;;;;;;;9.38;6.55;;;21.30;99.90;;;;;;4178120;28;20108;-78
2021/06/12 07:28:59;;;;;;;5.57;4.22;;;21.20;99.90;;;;;;4178279;28;20033;-78
2021/06/12 07:31:00;;;;;;;6.20;4.50;;;21.40;99.90;;;;;;4178330;28;20522;-78
2021/06/12 07:33:01;;;;;;;6.55;3.80;;;21.50;99.90;;;;;;4178162;28;20076;-78
2021/06/12 07:35:03;;;;;;;4.55;3.55;;;21.50;99.90;;;;;;4176473;28;20503;-77
2021/06/12 07:37:04;;;;;;;6.00;4.18;;;21.40;99.90;;;;;;4178419;28;20388;-77
2021/06/12 07:39:06;;;;;;;6.90;3.50;;;21.50;99.90;;;;;;4177965;28;20044;-77
2021/06/12 07:41:07;;;;;;;9.93;4.10;;;21.70;99.90;;;;;;4177977;28;20087;-77
2021/06/12 07:43:09;;;;;;;8.20;3.53;;;21.80;99.90;;;;;;4176586;28;20112;-77
2021/06/12 07:45:10;;;;;;;5.32;3.95;;;22.00;99.90;;;;;;4178378;28;20033;-78
2021/06/12 07:47:13;;;;;;;7.32;4.13;;;22.00;99.90;;;;;;4176919;28;20392;-79
2021/06/12 07:49:14;;;;;;;5.73;4.97;;;22.10;99.90;;;;;;4177328;28;20029;-78
2021/06/12 07:51:15;;;;;;;5.03;3.53;;;22.20;99.90;;;;;;4176462;28;20033;-79
2021/06/12 07:53:16;;;;;;;6.03;3.97;;;22.50;99.90;;;;;;4175794;28;20066;-79
2021/06/12 07:55:17;;;;;;;5.70;3.42;;;22.40;99.90;;;;;;4177233;28;20447;-78
2021/06/12 07:57:18;;;;;;;6.13;3.75;;;22.40;99.90;;;;;;4178072;28;20025;-80
2021/06/12 07:59:20;;;;;;;8.90;3.92;;;22.40;99.90;;;;;;4178608;28;20514;-79
2021/06/12 08:01:21;;;;;;;5.65;3.25;;;22.60;99.90;;;;;;4184015;28;20065;-79
2021/06/12 08:03:23;;;;;;;5.85;3.40;;;22.60;99.90;;;;;;4169850;28;20120;-78
2021/06/12 08:05:26;;;;;;;6.90;3.83;;;22.50;99.90;;;;;;4176950;28;20167;-78
2021/06/12 08:07:26;;;;;;;;;;;22.50;99.90;;;;;;4174931;28;20184;-79
2021/06/12 08:09:28;;;;;;;12.05;7.95;;;22.50;99.90;;;;;;4177946;28;19909;-79
2021/06/12 08:11:32;;;;;;;;;;;22.50;99.90;;;;;;4178854;28;20033;-79
2021/06/12 08:13:33;;;;;;;10.50;4.77;;;22.50;99.90;;;;;;4177032;28;19924;-78
2021/06/12 08:15:34;;;;;;;6.35;3.60;;;22.40;99.90;;;;;;4172613;28;20615;-78
2021/06/12 08:17:35;;;;;;;5.00;3.17;;;22.40;99.90;;;;;;4178764;28;20056;-77
2021/06/12 08:19:36;;;;;;;6.03;3.35;;;22.60;99.90;;;;;;4183192;28;20140;-78
2021/06/12 08:21:37;;;;;;;7.30;3.55;;;22.70;99.90;;;;;;4170434;28;20095;-78
2021/06/12 08:23:38;;;;;;;9.13;3.92;;;22.50;99.90;;;;;;4178837;28;20044;-76
2021/06/12 08:25:40;;;;;;;8.40;4.40;;;22.60;99.90;;;;;;4159236;28;20030;-79
2021/06/12 08:27:41;;;;;;;8.40;4.63;;;22.60;99.90;;;;;;4185183;28;20058;-80
2021/06/12 08:29:43;;;;;;;6.18;4.00;;;22.60;99.90;;;;;;4180201;28;20025;-80
2021/06/12 08:31:44;;;;;;;8.73;3.92;;;22.80;99.90;;;;;;4165076;28;20034;-82
2021/06/12 08:33:45;;;;;;;6.18;3.78;;;22.90;99.90;;;;;;4178571;28;20154;-81
2021/06/12 08:35:47;;;;;;;9.75;3.83;;;23.00;99.90;;;;;;4180626;28;20132;-79
2021/06/12 08:37:48;;;;;;;7.43;3.10;;;22.90;99.90;;;;;;4168621;28;20667;-80
2021/06/12 08:39:50;;;;;;;7.28;3.72;;;22.80;99.90;;;;;;4179903;28;20139;-78
2021/06/12 08:41:51;;;;;;;9.00;3.80;;;22.90;99.90;;;;;;4181928;28;20543;-79
2021/06/12 08:43:58;;;;;;;10.38;4.57;;;23.20;99.90;;;;;;4180851;28;20058;-78
2021/06/12 08:45:59;;;;;;;8.23;4.03;;;23.40;99.90;;;;;;4176484;28;20052;-78
2021/06/12 08:48:01;;;;;;;8.63;3.85;;;23.50;99.90;;;;;;4177035;28;20035;-78
2021/06/12 08:50:07;;;;;;;9.30;4.68;;;23.50;99.90;;;;;;4169874;28;20030;-78
2021/06/12 08:52:08;;;;;;;7.78;4.53;;;23.40;99.90;;;;;;4164809;28;20600;-80
2021/06/12 08:54:09;;;;;;;6.55;3.60;;;23.20;99.90;;;;;;4181064;28;20443;-80
2021/06/12 08:56:10;;;;;;;6.05;3.10;;;22.90;99.90;;;;;;4187130;28;20222;-78
2021/06/12 08:58:11;;;;;;;7.43;3.90;;;23.00;99.90;;;;;;4191551;28;20037;-78
2021/06/12 09:00:14;;;;;;;8.85;4.47;;;23.00;99.90;;;;;;4181073;28;20021;-77
2021/06/12 09:02:15;;;;;;;4.57;3.67;;;23.20;99.90;;;;;;4178981;28;20442;-79
2021/06/12 09:04:34;;;;;;;8.65;3.63;;;23.30;99.90;;;;;;4175817;28;20030;-78
2021/06/12 09:06:34;;;;;;;7.43;3.40;;;23.30;99.90;;;;;;4168494;28;20036;-79
2021/06/12 09:08:41;;;;;;;9.25;4.70;;;23.40;99.90;;;;;;4176502;28;20428;-78
2021/06/12 09:10:51;;;;;;;7.30;3.83;;;23.50;99.90;;;;;;4178315;28;20091;-78
2021/06/12 09:12:52;;;;;;;7.95;4.03;;;23.70;99.90;;;;;;4178995;28;20173;-78
2021/06/12 09:15:13;;;;;;;7.05;4.18;;;23.80;99.90;;;;;;4181672;28;20023;-78
2021/06/12 09:17:14;;;;;;;9.35;4.00;;;23.80;99.90;;;;;;4167548;28;20461;-78
2021/06/12 09:19:23;;;;;;;9.60;4.13;;;23.40;99.90;;;;;;4181679;28;20017;-78
2021/06/12 09:21:35;;;;;;;8.07;3.85;;;23.50;99.90;;;;;;4175545;28;20045;-78
2021/06/12 09:23:43;;;;;;;11.88;4.32;;;23.40;99.90;;;;;;4185902;28;20140;-78
2021/06/12 09:25:47;;;;;;;8.38;4.57;;;23.40;99.90;;;;;;4178823;28;20131;-79
2021/06/12 09:27:57;;;;;;;9.57;4.55;;;23.40;99.90;;;;;;4178986;28;20040;-79
2021/06/12 09:30:00;;;;;;;7.22;3.65;;;23.50;99.90;;;;;;4186888;28;20115;-79
2021/06/12 09:32:13;;;;;;;10.10;4.47;;;23.40;99.90;;;;;;4181978;28;20033;-79
2021/06/12 09:34:23;;;;;;;9.25;3.80;;;23.50;99.90;;;;;;4179705;28;20495;-79
2021/06/12 09:36:33;;;;;;;7.75;3.95;;;23.50;99.90;;;;;;4181776;28;20131;-81
2021/06/12 09:38:36;;;;;;;6.53;3.50;;;23.50;99.90;;;;;;4175980;28;20507;-79
2021/06/12 09:40:37;;;;;;;6.82;3.55;;;23.50;99.90;;;;;;4173573;28;20555;-81
2021/06/12 09:42:53;;;;;;;8.90;3.65;;;23.30;99.90;;;;;;4179156;28;20075;-81
2021/06/12 09:45:04;;;;;;;4.97;3.78;;;23.10;99.90;;;;;;4179349;28;20032;-80
2021/06/12 09:47:27;;;;;;;9.55;3.80;;;23.20;99.90;;;;;;4177683;28;20349;-81
2021/06/12 09:49:35;;;;;;;10.48;3.75;;;23.40;99.90;;;;;;4176988;28;20079;-80
2021/06/12 09:51:39;;;;;;;7.88;3.88;;;23.60;99.90;;;;;;4171313;28;20032;-80
2021/06/12 09:53:54;;;;;;;6.03;4.10;;;23.50;99.90;;;;;;4180991;28;20045;-81
2021/06/12 09:56:08;;;;;;;6.97;3.88;;;23.50;99.90;;;;;;4173328;28;20029;-80
2021/06/12 09:58:10;;;;;;;8.02;3.55;;;23.60;99.90;;;;;;4180628;28;20484;-81
2021/06/12 10:00:13;;;;;;;6.72;3.65;;;23.30;99.90;;;;;;4179454;28;20337;-81
2021/06/12 10:02:34;;;;;;;;;;;23.20;99.90;;;;;;4179997;28;20017;-80
2021/06/12 10:04:35;;;;;;;10.68;3.78;;;23.20;99.90;;;;;;4178565;28;19913;-82
2021/06/12 10:06:37;;;;;;;8.05;4.45;;;23.40;99.90;;;;;;4178166;28;20033;-79
2021/06/12 10:08:42;;;;;;;11.23;4.28;;;23.50;99.90;;;;;;4181176;28;20036;-80
2021/06/12 10:10:51;;;;;;;7.38;3.97;;;23.40;99.90;;;;;;4179551;28;20071;-82
2021/06/12 10:12:53;;;;;;;6.13;4.20;;;23.40;99.90;;;;;;4179584;28;20084;-81
2021/06/12 10:14:57;;;;;;;3.42;3.08;;;23.60;99.90;;;;;;4177105;28;20037;-81
2021/06/12 10:16:59;;;;;;;6.60;3.55;;;23.90;99.90;;;;;;4181128;28;20529;-80
2021/06/12 10:19:03;;;;;;;8.73;3.55;;;23.90;99.90;;;;;;4180073;28;20033;-80
2021/06/12 10:21:06;;;;;;;7.80;3.60;;;23.70;99.90;;;;;;4178259;28;20507;-81
2021/06/12 10:23:06;;;;;;;10.93;5.28;;;23.70;99.90;;;;;;4179362;28;20033;-80
2021/06/12 10:25:09;;;;;;;7.03;3.53;;;23.80;99.90;;;;;;4179982;28;20391;-79
2021/06/12 10:27:11;;;;;;;8.00;3.38;;;23.70;99.90;;;;;;4180192;28;20025;-80
2021/06/12 10:29:13;;;;;;;7.90;3.80;;;23.60;99.90;;;;;;4178790;28;20029;-80